RJNK(METAR)
05/21 17:00
METAR RJNK 210800Z 29010KT 9999 FEW180 BKN230 19/10 Q1005 RMK 1AC180
A2968=
戻る
トップページへ戻る
IMOC Co,.Ltd.